Airfield :
LOGIN :

Register | Disclaimer

   EN    FR    IT 

 










Legend :    VFR   Marginal VFR   IFR   Intensive IFR   Very Intensive IFR
Visi :
Ceiling :
>= 8 km
>= 3000ft
5 to 8 km
1000 to 3000 ft
1500m to 5 km
500 to 1000 ft
800 to 1500m
200 to 500 ft
< 800m
< 200 ft
Symbols :   Thunderstorms  Fog  Heavy snow  Heavy precipitations  Wind > 20 kt
SIGMETs :     Misc.  Thunderstorms  Icing  Turbulence  Mountain Waves  Volcanic Ashes






- Airport Elevation : 776 ft
- IATA code : RMS


ETAR - Ramstein Air Base

CURRENT METAR :
  • 060356Z AUTO 00000KT 9999 CLR M01/M02 A3012 RMK AO2 SLP207 T10111019 FZRANO $

EXPIRED METARs :
  • 060256Z AUTO 00000KT 9999 CLR M01/M02 A3011 RMK AO2 SLP203 T10061016 52007 FZRANO $
  • 060156Z AUTO 00000KT 9999 CLR 01/M01 A3010 RMK AO2 SLP199 T00061006 FZRANO $

TAF TAF ETAR
Valid from the 06 at 02:00 until the 07 at 08:00 UTC


060200Z 0602/0708 VRB06KT 9999 SKC QNH3011INS
BECMG 0608/0609 22012KT 9999 SKC QNH3020INS
BECMG 0616/0617 VRB06KT 9999 SKC QNH3025INS TX19/0615Z TNM01/0603Z



MET'MAP, your aeronautical weather chart ! - Copyright ORBIFLY December 2007 - Disclaimer

ORBIFLY MET'MAP TEAM :

Programming & Development : Alexandra Zaïnal
Concept & original design : Baudouin d'Aumeries
Assistance for programming : Marc-Olivier Méhu
Technical & hardware support : Manuel Goepfert

Contact : metmap@orbifly.com




SOURCES & CREDITS :

   NOAA